createdAt,value
2023-06-01T00:02:21.375Z,17.89
2023-06-01T00:04:51.316Z,17.85
2023-06-01T00:07:17.811Z,17.85
2023-06-01T00:09:44.380Z,17.82
2023-06-01T00:12:11.100Z,17.72
2023-06-01T00:14:37.959Z,17.72
2023-06-01T00:17:06.764Z,17.74
2023-06-01T00:19:33.680Z,17.69
2023-06-01T00:22:00.394Z,17.74
2023-06-01T00:24:27.068Z,17.73
2023-06-01T00:26:53.560Z,17.71
2023-06-01T00:29:19.993Z,17.62
2023-06-01T00:31:46.608Z,17.63
2023-06-01T00:34:13.218Z,17.63
2023-06-01T00:36:40.208Z,17.56
2023-06-01T00:39:06.938Z,17.53
2023-06-01T00:41:34.148Z,17.52
2023-06-01T00:44:01.238Z,17.53
2023-06-01T00:46:31.076Z,17.50
2023-06-01T00:48:58.743Z,17.49
2023-06-01T00:51:25.754Z,17.44
2023-06-01T00:53:52.424Z,17.40
2023-06-01T00:56:19.327Z,17.27
2023-06-01T00:58:46.074Z,17.14
2023-06-01T01:01:23.708Z,17.18
2023-06-01T01:03:58.202Z,17.25
2023-06-01T01:06:46.997Z,17.38
2023-06-01T01:10:04.968Z,17.39
2023-06-01T01:12:57.049Z,17.41
2023-06-01T01:15:51.306Z,17.42
2023-06-01T01:18:26.021Z,17.42
2023-06-01T01:20:59.501Z,17.48
2023-06-01T01:23:51.206Z,17.47
2023-06-01T01:26:46.101Z,17.50
2023-06-01T01:29:15.041Z,17.49
2023-06-01T01:31:42.255Z,17.52
2023-06-01T01:34:10.762Z,17.49
2023-06-01T01:36:37.740Z,17.46
2023-06-01T01:39:04.749Z,17.42
2023-06-01T01:41:31.208Z,17.44
2023-06-01T01:44:00.165Z,17.43
2023-06-01T01:46:29.782Z,17.38
2023-06-01T01:48:56.442Z,17.32
2023-06-01T01:51:38.383Z,17.35
2023-06-01T01:54:07.730Z,17.40
2023-06-01T01:56:36.906Z,17.44
2023-06-01T01:59:04.417Z,17.39
2023-06-01T02:01:34.948Z,17.43
2023-06-01T02:04:04.721Z,17.41
2023-06-01T02:06:31.793Z,17.40
2023-06-01T02:08:58.307Z,17.41
2023-06-01T02:11:24.752Z,17.40
2023-06-01T02:13:51.304Z,17.34
2023-06-01T02:16:17.863Z,17.32
2023-06-01T02:18:46.819Z,17.32
2023-06-01T02:21:14.553Z,17.31
2023-06-01T02:23:41.673Z,17.28
2023-06-01T02:26:08.744Z,17.31
2023-06-01T02:28:37.632Z,17.25
2023-06-01T02:31:04.032Z,17.32
2023-06-01T02:33:30.996Z,17.22
2023-06-01T02:35:57.472Z,17.18
2023-06-01T02:38:23.895Z,17.19
2023-06-01T02:40:50.368Z,17.10
2023-06-01T02:43:16.772Z,17.07
2023-06-01T02:45:43.161Z,17.03
2023-06-01T02:48:09.553Z,17.04
2023-06-01T02:50:36.375Z,16.91
2023-06-01T02:53:03.982Z,16.86
2023-06-01T02:55:30.363Z,16.75
2023-06-01T02:57:56.802Z,16.68
2023-06-01T03:00:23.478Z,16.71
2023-06-01T03:02:50.481Z,16.81
2023-06-01T03:05:17.953Z,16.86
2023-06-01T03:07:45.350Z,16.88
2023-06-01T03:10:11.882Z,16.87
2023-06-01T03:12:38.348Z,16.86
2023-06-01T03:15:05.963Z,16.84
2023-06-01T03:17:34.121Z,16.72
2023-06-01T03:20:01.354Z,16.76
2023-06-01T03:22:27.749Z,16.73
2023-06-01T03:24:55.684Z,16.70
2023-06-01T03:27:22.165Z,16.72
2023-06-01T03:29:48.553Z,16.75
2023-06-01T03:32:15.362Z,16.71
2023-06-01T03:34:42.434Z,16.60
2023-06-01T03:37:09.056Z,16.61
2023-06-01T03:39:36.742Z,16.51
2023-06-01T03:42:03.563Z,16.59
2023-06-01T03:44:30.010Z,16.60
2023-06-01T03:46:56.520Z,16.54
2023-06-01T03:49:23.030Z,16.58
2023-06-01T03:51:49.591Z,16.53
2023-06-01T03:54:15.991Z,16.51
2023-06-01T03:56:42.460Z,16.53
2023-06-01T03:59:11.115Z,16.51
2023-06-01T04:01:41.240Z,16.52
2023-06-01T04:04:09.533Z,16.55
2023-06-01T04:06:37.322Z,16.57
2023-06-01T04:09:07.986Z,16.64
2023-06-01T04:11:34.586Z,16.63
2023-06-01T04:14:00.983Z,16.56
2023-06-01T04:16:27.590Z,16.58
2023-06-01T04:18:54.253Z,16.60
2023-06-01T04:21:24.078Z,16.62
2023-06-01T04:23:51.657Z,16.58
2023-06-01T04:26:19.182Z,16.65
2023-06-01T04:28:46.906Z,16.66
2023-06-01T04:31:17.909Z,16.69
2023-06-01T04:33:45.530Z,16.68
2023-06-01T04:36:20.597Z,16.65
2023-06-01T04:38:51.985Z,16.62
2023-06-01T04:41:18.590Z,16.60
2023-06-01T04:43:45.950Z,16.68
2023-06-01T04:46:12.990Z,16.58
2023-06-01T04:48:39.445Z,16.64
2023-06-01T04:51:05.940Z,16.69
2023-06-01T04:53:32.532Z,16.73
2023-06-01T04:55:59.014Z,16.62
2023-06-01T04:58:25.607Z,16.65
2023-06-01T05:00:52.283Z,16.65
2023-06-01T05:03:18.747Z,16.59
2023-06-01T05:05:45.238Z,16.66
2023-06-01T05:08:12.086Z,16.71
2023-06-01T05:10:39.063Z,16.79
2023-06-01T05:13:05.786Z,16.78
2023-06-01T05:15:32.193Z,16.85
2023-06-01T05:17:58.728Z,16.84
2023-06-01T05:20:25.286Z,16.76
2023-06-01T05:22:51.689Z,16.86
2023-06-01T05:25:18.352Z,16.92
2023-06-01T05:27:44.751Z,16.90
2023-06-01T05:30:11.834Z,16.96
2023-06-01T05:32:38.207Z,16.95
2023-06-01T05:35:05.578Z,16.93
2023-06-01T05:37:31.978Z,16.75
2023-06-01T05:39:58.368Z,16.76
2023-06-01T05:42:24.755Z,16.88
2023-06-01T05:44:51.175Z,16.96
2023-06-01T05:47:17.578Z,17.02
2023-06-01T05:49:44.033Z,16.99
2023-06-01T05:52:10.981Z,17.01
2023-06-01T05:54:37.621Z,17.05
2023-06-01T05:57:04.348Z,17.13
2023-06-01T05:59:30.744Z,17.19
2023-06-01T06:01:57.338Z,17.22
2023-06-01T06:04:23.857Z,17.24
2023-06-01T06:06:50.393Z,17.27
2023-06-01T06:09:17.044Z,17.38
2023-06-01T06:11:44.320Z,17.53
2023-06-01T06:14:12.600Z,17.65
2023-06-01T06:16:40.787Z,17.74
2023-06-01T06:19:07.200Z,17.81
2023-06-01T06:21:34.531Z,18.09
2023-06-01T06:24:01.005Z,19.03
2023-06-01T06:26:30.924Z,19.89
2023-06-01T06:28:57.357Z,20.78
2023-06-01T06:31:24.699Z,21.25
2023-06-01T06:33:52.260Z,21.34
2023-06-01T06:36:19.089Z,21.53
2023-06-01T06:38:45.886Z,21.60
2023-06-01T06:41:12.362Z,21.62
2023-06-01T06:43:38.725Z,21.53
2023-06-01T06:46:05.393Z,21.51
2023-06-01T06:48:31.867Z,21.36
2023-06-01T06:50:58.333Z,21.37
2023-06-01T06:53:24.762Z,21.31
2023-06-01T06:55:51.176Z,21.27
2023-06-01T06:58:17.644Z,21.22
2023-06-01T07:00:44.351Z,21.24
2023-06-01T07:03:11.306Z,21.16
2023-06-01T07:05:37.898Z,21.21
2023-06-01T07:08:04.365Z,21.15
2023-06-01T07:10:30.784Z,21.13
2023-06-01T07:12:57.186Z,21.06
2023-06-01T07:15:23.662Z,20.99
2023-06-01T07:17:50.128Z,21.02
2023-06-01T07:20:16.812Z,21.07
2023-06-01T07:22:43.322Z,21.10
2023-06-01T07:25:10.849Z,21.10
2023-06-01T07:27:37.327Z,20.99
2023-06-01T07:30:04.932Z,21.13
2023-06-01T07:32:32.623Z,21.14
2023-06-01T07:35:00.186Z,21.12
2023-06-01T07:37:28.076Z,21.13
2023-06-01T07:39:55.620Z,21.17
2023-06-01T07:42:22.157Z,21.14
2023-06-01T07:44:48.676Z,21.13
2023-06-01T07:47:15.233Z,21.08
2023-06-01T07:49:41.666Z,21.13
2023-06-01T07:52:08.380Z,21.13
2023-06-01T07:54:37.162Z,21.22
2023-06-01T07:57:07.115Z,21.23
2023-06-01T07:59:33.675Z,21.24
2023-06-01T08:02:01.546Z,21.25
2023-06-01T08:04:34.542Z,21.26
2023-06-01T08:07:04.232Z,21.28
2023-06-01T08:09:31.464Z,21.32
2023-06-01T08:11:57.965Z,21.31
2023-06-01T08:14:24.797Z,21.44
2023-06-01T08:16:52.506Z,21.45
2023-06-01T08:19:19.172Z,21.49
2023-06-01T08:21:46.794Z,21.46
2023-06-01T08:24:14.257Z,21.49
2023-06-01T08:26:40.755Z,21.52
2023-06-01T08:29:07.178Z,21.55
2023-06-01T08:31:33.717Z,21.55
2023-06-01T08:34:00.242Z,21.63
2023-06-01T08:36:26.818Z,21.67
2023-06-01T08:38:56.789Z,21.74
2023-06-01T08:41:32.289Z,21.74
2023-06-01T08:44:04.755Z,21.83
2023-06-01T08:46:33.716Z,21.80
2023-06-01T08:49:01.360Z,21.83
2023-06-01T08:51:28.273Z,21.79
2023-06-01T08:53:57.493Z,21.86
2023-06-01T08:56:25.030Z,21.95
2023-06-01T08:58:52.637Z,21.95
2023-06-01T09:01:22.343Z,22.02
2023-06-01T09:03:50.098Z,22.03
2023-06-01T09:06:17.161Z,22.11
2023-06-01T09:08:43.724Z,22.11
2023-06-01T09:11:10.241Z,22.20
2023-06-01T09:13:38.832Z,22.25
2023-06-01T09:16:07.153Z,22.22
2023-06-01T09:18:34.524Z,22.24
2023-06-01T09:21:15.352Z,22.22
2023-06-01T09:23:43.761Z,22.25
2023-06-01T09:26:14.774Z,22.33
2023-06-01T09:28:56.735Z,22.40
2023-06-01T09:31:37.828Z,22.34
2023-06-01T09:34:05.632Z,22.34
2023-06-01T09:36:32.866Z,22.34
2023-06-01T09:39:09.019Z,22.33
2023-06-01T09:42:05.411Z,22.51
2023-06-01T09:44:34.086Z,22.41
2023-06-01T09:47:12.955Z,22.37
2023-06-01T09:49:45.437Z,22.37
2023-06-01T09:52:18.044Z,22.46
2023-06-01T09:54:47.611Z,22.51
2023-06-01T09:57:21.741Z,22.61
2023-06-01T09:59:48.758Z,22.67
2023-06-01T10:02:23.852Z,22.68
2023-06-01T10:04:59.878Z,22.71
2023-06-01T10:07:32.730Z,22.66
2023-06-01T10:10:03.771Z,22.60
2023-06-01T10:12:34.332Z,22.55
2023-06-01T10:15:05.527Z,22.58
2023-06-01T10:17:39.899Z,22.64
2023-06-01T10:20:07.457Z,22.70
2023-06-01T10:22:35.565Z,22.79
2023-06-01T10:25:03.538Z,22.77
2023-06-01T10:27:49.032Z,22.74
2023-06-01T10:30:15.632Z,22.74
2023-06-01T10:32:46.646Z,22.79
2023-06-01T10:35:33.107Z,22.94
2023-06-01T10:38:14.039Z,22.99
2023-06-01T10:40:42.387Z,23.07
2023-06-01T10:43:49.805Z,23.04
2023-06-01T10:46:38.159Z,22.94
2023-06-01T10:49:05.648Z,23.05
2023-06-01T10:51:32.385Z,23.11
2023-06-01T10:54:26.949Z,23.17
2023-06-01T10:57:19.906Z,23.20
2023-06-01T11:00:09.216Z,23.20
2023-06-01T11:02:35.959Z,23.24
2023-06-01T11:05:39.474Z,23.36
2023-06-01T11:08:09.607Z,23.43
2023-06-01T11:10:54.259Z,23.36
2023-06-01T11:13:31.162Z,23.40
2023-06-01T11:16:19.909Z,23.46
2023-06-01T11:18:59.360Z,23.55
2023-06-01T11:21:28.952Z,23.58
2023-06-01T11:23:57.914Z,23.70
2023-06-01T11:26:31.605Z,23.80
2023-06-01T11:29:13.219Z,23.84
2023-06-01T11:31:48.103Z,23.96
2023-06-01T11:34:21.768Z,24.03
2023-06-01T11:36:50.375Z,23.93
2023-06-01T11:39:20.991Z,23.83
2023-06-01T11:42:07.617Z,23.97
2023-06-01T11:44:35.731Z,24.05
2023-06-01T11:47:02.941Z,24.07
2023-06-01T11:49:29.665Z,24.11
2023-06-01T11:51:59.644Z,24.15
2023-06-01T11:54:29.863Z,24.12
2023-06-01T11:56:58.958Z,24.05
2023-06-01T11:59:25.804Z,24.07
2023-06-01T12:01:53.596Z,24.03
2023-06-01T12:04:23.316Z,24.06
2023-06-01T12:06:50.239Z,24.08
2023-06-01T12:09:17.897Z,24.12
2023-06-01T12:11:45.466Z,24.12
2023-06-01T12:14:14.822Z,24.18
2023-06-01T12:16:59.623Z,24.22
2023-06-01T12:19:27.880Z,24.27
2023-06-01T12:21:57.007Z,24.30
2023-06-01T12:24:30.454Z,24.28
2023-06-01T12:26:59.180Z,24.25
2023-06-01T12:29:39.177Z,24.14
2023-06-01T12:32:06.572Z,24.16
2023-06-01T12:34:33.023Z,24.21
2023-06-01T12:36:59.489Z,24.16
2023-06-01T12:39:52.008Z,24.32
2023-06-01T12:42:18.648Z,24.29
2023-06-01T12:44:45.456Z,24.26
2023-06-01T12:47:11.872Z,24.30
2023-06-01T12:49:39.086Z,24.30
2023-06-01T12:52:05.864Z,24.29
2023-06-01T12:54:32.253Z,24.37
2023-06-01T12:56:58.720Z,24.43
2023-06-01T12:59:25.148Z,24.57
2023-06-01T13:01:51.609Z,24.55
2023-06-01T13:04:18.300Z,24.54
2023-06-01T13:06:45.668Z,24.60
2023-06-01T13:09:12.289Z,24.60
2023-06-01T13:11:38.830Z,24.60
2023-06-01T13:14:05.240Z,24.63
2023-06-01T13:16:31.711Z,24.63
2023-06-01T13:18:58.468Z,24.67
2023-06-01T13:21:25.112Z,24.65
2023-06-01T13:23:51.557Z,24.69
2023-06-01T13:26:18.104Z,24.63
2023-06-01T13:28:44.546Z,24.61
2023-06-01T13:31:11.013Z,24.63
2023-06-01T13:33:37.561Z,24.60
2023-06-01T13:36:04.796Z,24.62
2023-06-01T13:38:32.256Z,24.63
2023-06-01T13:40:58.676Z,24.72
2023-06-01T13:43:25.237Z,24.74
2023-06-01T13:45:51.853Z,24.77
2023-06-01T13:48:20.601Z,24.72
2023-06-01T13:50:47.431Z,24.72
2023-06-01T13:53:13.872Z,24.72
2023-06-01T13:55:40.668Z,24.74
2023-06-01T13:58:07.193Z,24.78
2023-06-01T14:00:34.066Z,24.79
2023-06-01T14:03:00.664Z,24.90
2023-06-01T14:05:36.032Z,24.87
2023-06-01T14:08:11.412Z,24.96
2023-06-01T14:10:37.862Z,24.87
2023-06-01T14:13:04.299Z,24.74
2023-06-01T14:15:31.646Z,24.78
2023-06-01T14:17:58.228Z,24.76
2023-06-01T14:20:24.815Z,24.80
2023-06-01T14:22:51.641Z,24.81
2023-06-01T14:25:18.283Z,24.80
2023-06-01T14:27:44.674Z,24.77
2023-06-01T14:30:11.691Z,24.75
2023-06-01T14:32:38.228Z,24.73
2023-06-01T14:35:04.943Z,24.66
2023-06-01T14:37:45.282Z,24.61
2023-06-01T14:40:15.269Z,24.58
2023-06-01T14:42:41.643Z,24.57
2023-06-01T14:45:08.793Z,24.56
2023-06-01T14:47:35.376Z,24.59
2023-06-01T14:50:01.792Z,24.64
2023-06-01T14:52:28.263Z,24.62
2023-06-01T14:54:54.672Z,24.60
2023-06-01T14:57:21.834Z,24.62
2023-06-01T15:00:02.650Z,24.66
2023-06-01T15:02:30.903Z,24.70
2023-06-01T15:04:57.341Z,24.77
2023-06-01T15:07:23.899Z,24.83
2023-06-01T15:09:50.510Z,24.76
2023-06-01T15:12:16.922Z,24.81
2023-06-01T15:14:43.855Z,24.82
2023-06-01T15:17:10.838Z,24.83
2023-06-01T15:19:37.442Z,24.84
2023-06-01T15:22:04.409Z,24.85
2023-06-01T15:24:31.030Z,24.79
2023-06-01T15:26:57.568Z,24.72
2023-06-01T15:29:23.964Z,24.71
2023-06-01T15:31:50.435Z,24.70
2023-06-01T15:34:16.971Z,24.62
2023-06-01T15:36:43.462Z,24.58
2023-06-01T15:39:11.344Z,24.54
2023-06-01T15:41:37.855Z,24.52
2023-06-01T15:44:04.271Z,24.51
2023-06-01T15:46:30.733Z,24.53
2023-06-01T15:48:57.179Z,24.53
2023-06-01T15:51:25.065Z,24.55
2023-06-01T15:53:51.835Z,24.57
2023-06-01T15:56:18.291Z,24.64
2023-06-01T15:58:44.708Z,24.60
2023-06-01T16:01:18.537Z,24.51
2023-06-01T16:03:50.587Z,24.42
2023-06-01T16:06:17.046Z,24.34
2023-06-01T16:08:43.515Z,24.25
2023-06-01T16:11:09.960Z,24.18
2023-06-01T16:13:36.404Z,24.15
2023-06-01T16:16:02.881Z,24.10
2023-06-01T16:18:29.355Z,24.05
2023-06-01T16:20:55.767Z,24.00
2023-06-01T16:23:22.417Z,23.97
2023-06-01T16:25:48.879Z,23.94
2023-06-01T16:28:15.376Z,23.87
2023-06-01T16:30:41.859Z,23.86
2023-06-01T16:33:09.206Z,23.85
2023-06-01T16:35:35.681Z,23.86
2023-06-01T16:38:02.080Z,23.84
2023-06-01T16:40:28.640Z,23.79
2023-06-01T16:42:55.104Z,23.76
2023-06-01T16:45:21.491Z,23.72
2023-06-01T16:47:48.049Z,23.64
2023-06-01T16:50:14.476Z,23.59
2023-06-01T16:52:40.961Z,23.59
2023-06-01T16:55:07.733Z,23.56
2023-06-01T16:57:34.809Z,23.51
2023-06-01T17:00:01.352Z,23.51
2023-06-01T17:02:28.689Z,23.51
2023-06-01T17:04:55.381Z,23.53
2023-06-01T17:07:21.753Z,23.48
2023-06-01T17:09:48.373Z,23.47
2023-06-01T17:12:18.443Z,23.42
2023-06-01T17:14:45.864Z,23.34
2023-06-01T17:17:14.236Z,23.30
2023-06-01T17:19:41.270Z,23.22
2023-06-01T17:22:08.196Z,23.20
2023-06-01T17:24:35.434Z,23.16
2023-06-01T17:27:02.073Z,23.16
2023-06-01T17:29:28.853Z,23.14
2023-06-01T17:31:55.805Z,23.14
2023-06-01T17:34:22.174Z,23.12
2023-06-01T17:36:48.571Z,23.07
2023-06-01T17:39:15.248Z,23.08
2023-06-01T17:41:43.851Z,23.02
2023-06-01T17:44:11.289Z,22.97
2023-06-01T17:46:37.695Z,22.95
2023-06-01T17:49:04.330Z,22.86
2023-06-01T17:51:31.333Z,22.78
2023-06-01T17:53:57.758Z,22.75
2023-06-01T17:56:24.406Z,22.67
2023-06-01T17:58:50.851Z,22.59
2023-06-01T18:01:17.273Z,22.54
2023-06-01T18:03:43.696Z,22.49
2023-06-01T18:06:10.148Z,22.45
2023-06-01T18:08:36.593Z,22.40
2023-06-01T18:11:07.425Z,22.34
2023-06-01T18:13:34.139Z,22.35
2023-06-01T18:16:00.681Z,22.31
2023-06-01T18:18:27.390Z,22.19
2023-06-01T18:20:53.810Z,22.17
2023-06-01T18:23:20.515Z,22.17
2023-06-01T18:25:46.949Z,22.20
2023-06-01T18:28:13.368Z,22.17
2023-06-01T18:30:40.011Z,22.14
2023-06-01T18:33:06.647Z,22.14
2023-06-01T18:35:33.037Z,22.16
2023-06-01T18:37:59.445Z,22.14
2023-06-01T18:40:25.975Z,22.15
2023-06-01T18:42:52.604Z,22.15
2023-06-01T18:45:18.973Z,22.17
2023-06-01T18:47:45.468Z,22.10
2023-06-01T18:50:11.952Z,22.04
2023-06-01T18:52:38.355Z,21.99
2023-06-01T18:55:06.403Z,21.97
2023-06-01T18:57:32.956Z,21.94
2023-06-01T19:00:04.427Z,21.93
2023-06-01T19:02:30.843Z,21.81
2023-06-01T19:05:04.025Z,21.79
2023-06-01T19:07:39.324Z,21.76
2023-06-01T19:10:11.247Z,21.73
2023-06-01T19:12:37.950Z,21.69
2023-06-01T19:15:13.527Z,21.69
2023-06-01T19:17:40.827Z,21.64
2023-06-01T19:20:31.035Z,21.69
2023-06-01T19:22:57.472Z,21.56
2023-06-01T19:25:23.885Z,21.60
2023-06-01T19:27:50.986Z,21.56
2023-06-01T19:30:18.341Z,21.52
2023-06-01T19:32:45.410Z,21.51
2023-06-01T19:35:16.787Z,21.34
2023-06-01T19:37:47.620Z,21.29
2023-06-01T19:40:18.059Z,21.12
2023-06-01T19:42:45.068Z,21.08
2023-06-01T19:45:17.366Z,21.13
2023-06-01T19:47:52.876Z,21.04
2023-06-01T19:50:42.221Z,20.97
2023-06-01T19:53:08.739Z,20.79
2023-06-01T19:55:35.778Z,20.76
2023-06-01T19:58:02.481Z,20.69
2023-06-01T20:00:32.204Z,20.60
2023-06-01T20:03:02.174Z,20.49
2023-06-01T20:05:29.166Z,20.38
2023-06-01T20:08:01.423Z,20.33
2023-06-01T20:10:33.391Z,20.30
2023-06-01T20:13:01.877Z,20.18
2023-06-01T20:15:33.539Z,20.11
2023-06-01T20:18:04.509Z,20.07
2023-06-01T20:20:36.296Z,20.02
2023-06-01T20:23:07.916Z,20.12
2023-06-01T20:25:35.590Z,20.03
2023-06-01T20:28:06.047Z,20.06
2023-06-01T20:30:32.581Z,19.96
2023-06-01T20:32:59.069Z,19.92
2023-06-01T20:35:25.849Z,19.97
2023-06-01T20:37:55.532Z,20.00
2023-06-01T20:40:44.505Z,20.04
2023-06-01T20:43:21.325Z,19.98
2023-06-01T20:46:02.178Z,19.97
2023-06-01T20:48:49.740Z,19.94
2023-06-01T20:51:43.403Z,19.92
2023-06-01T20:54:12.883Z,19.89
2023-06-01T20:56:39.441Z,19.94
2023-06-01T20:59:07.735Z,19.96
2023-06-01T21:01:38.546Z,19.77
2023-06-01T21:04:19.947Z,19.72
2023-06-01T21:06:46.787Z,19.74
2023-06-01T21:09:14.669Z,19.85
2023-06-01T21:11:43.839Z,19.76
2023-06-01T21:14:11.575Z,19.73
2023-06-01T21:16:38.500Z,19.68
2023-06-01T21:19:05.478Z,19.60
2023-06-01T21:21:32.684Z,19.53
2023-06-01T21:24:00.597Z,19.61
2023-06-01T21:26:27.155Z,19.58
2023-06-01T21:28:53.840Z,19.61
2023-06-01T21:31:20.785Z,19.60
2023-06-01T21:33:48.187Z,19.62
2023-06-01T21:36:15.166Z,19.54
2023-06-01T21:38:41.993Z,19.51
2023-06-01T21:41:09.416Z,19.49
2023-06-01T21:43:36.662Z,19.42
2023-06-01T21:46:04.355Z,19.41
2023-06-01T21:48:32.368Z,19.55
2023-06-01T21:50:59.268Z,19.52
2023-06-01T21:53:26.706Z,19.35
2023-06-01T21:55:53.925Z,19.26
2023-06-01T21:58:24.983Z,19.33
2023-06-01T22:00:51.950Z,19.30
2023-06-01T22:03:20.343Z,19.35
2023-06-01T22:05:48.358Z,19.39
2023-06-01T22:08:15.042Z,19.37
2023-06-01T22:10:41.841Z,19.37
2023-06-01T22:13:08.655Z,19.32
2023-06-01T22:15:35.694Z,19.34
2023-06-01T22:18:02.496Z,19.23
2023-06-01T22:20:31.940Z,19.17
2023-06-01T22:22:58.497Z,19.13
2023-06-01T22:25:25.101Z,19.09
2023-06-01T22:27:51.703Z,19.05
2023-06-01T22:30:18.240Z,19.03
2023-06-01T22:32:44.728Z,19.18
2023-06-01T22:35:11.496Z,19.24
2023-06-01T22:37:38.133Z,19.22
2023-06-01T22:40:08.440Z,19.27
2023-06-01T22:42:35.322Z,19.19
2023-06-01T22:45:02.516Z,19.15
2023-06-01T22:47:29.135Z,19.05
2023-06-01T22:49:57.791Z,19.07
2023-06-01T22:52:28.470Z,19.05
2023-06-01T22:54:56.213Z,19.07
2023-06-01T22:57:23.291Z,19.00
2023-06-01T22:59:50.177Z,18.92
2023-06-01T23:02:18.220Z,18.70
2023-06-01T23:04:46.011Z,18.86
2023-06-01T23:07:13.808Z,18.93
2023-06-01T23:09:40.754Z,18.90
2023-06-01T23:12:08.114Z,18.91
2023-06-01T23:14:38.271Z,18.80
2023-06-01T23:17:05.517Z,18.85
2023-06-01T23:19:33.889Z,18.94
2023-06-01T23:22:04.026Z,18.93
2023-06-01T23:24:32.438Z,18.77
2023-06-01T23:27:00.590Z,18.79
2023-06-01T23:29:27.870Z,18.85
2023-06-01T23:31:55.276Z,18.79
2023-06-01T23:34:22.219Z,18.72
2023-06-01T23:36:53.696Z,18.73
2023-06-01T23:39:22.028Z,18.67
2023-06-01T23:41:49.776Z,18.71
2023-06-01T23:44:17.678Z,18.73
2023-06-01T23:46:46.013Z,18.67
2023-06-01T23:49:13.389Z,18.65
2023-06-01T23:51:40.050Z,18.72
2023-06-01T23:54:07.106Z,18.71
2023-06-01T23:56:34.149Z,18.69
2023-06-01T23:59:00.929Z,18.70
